Time;durP1;ratioP1;P1;durP2;ratioP2;P2;SDS_P1;SDS_P2;PMS_P1;PMS_P2;Temp;Humidity;BMP_temperature;BMP_pressure;BME280_temperature;BME280_humidity;BME280_pressure;Samples;Min_cycle;Max_cycle;Signal;HPM_P1;HPM_P2
2022/05/09 00:00:22;;;;;;;9.60;4.38;;;16.80;99.90;;;;;;4994619;28;20482;-75
2022/05/09 00:02:50;;;;;;;11.45;4.45;;;16.80;99.90;;;;;;4993304;28;20131;-75
2022/05/09 00:05:21;;;;;;;11.95;4.95;;;16.80;99.90;;;;;;4994365;28;20074;-74
2022/05/09 00:07:49;;;;;;;10.73;4.53;;;16.80;99.90;;;;;;4993648;28;20030;-74
2022/05/09 00:10:19;;;;;;;7.32;3.95;;;16.70;99.90;;;;;;4994542;28;20024;-74
2022/05/09 00:12:47;;;;;;;9.50;4.53;;;16.80;99.90;;;;;;4994404;28;20109;-75
2022/05/09 00:15:16;;;;;;;8.15;4.47;;;17.00;99.90;;;;;;4994396;28;20025;-74
2022/05/09 00:17:45;;;;;;;8.23;3.72;;;16.90;99.90;;;;;;4994234;28;20080;-75
2022/05/09 00:20:14;;;;;;;9.18;3.85;;;16.90;99.90;;;;;;4993064;28;20026;-75
2022/05/09 00:22:48;;;;;;;8.75;3.80;;;16.90;99.90;;;;;;4994290;28;20097;-75
2022/05/09 00:25:17;;;;;;;10.32;4.68;;;16.80;99.90;;;;;;4992919;28;20033;-76
2022/05/09 00:27:44;;;;;;;7.85;3.88;;;16.90;99.90;;;;;;4992770;28;20057;-75
2022/05/09 00:30:12;;;;;;;8.07;4.63;;;16.90;99.90;;;;;;4992941;28;20019;-75
2022/05/09 00:32:40;;;;;;;9.93;4.38;;;17.00;99.90;;;;;;4992922;28;20452;-75
2022/05/09 00:35:09;;;;;;;7.78;3.63;;;17.00;99.90;;;;;;4994075;28;20021;-75
2022/05/09 00:37:37;;;;;;;9.73;3.78;;;17.00;99.90;;;;;;4992804;28;20554;-75
2022/05/09 00:40:08;;;;;;;9.70;3.80;;;17.00;99.90;;;;;;4993976;28;20029;-75
2022/05/09 00:42:38;;;;;;;7.35;3.92;;;17.20;99.90;;;;;;4994149;28;20023;-75
2022/05/09 00:45:08;;;;;;;10.13;2.80;;;17.20;99.90;;;;;;4992666;28;20041;-76
2022/05/09 00:47:35;;;;;;;6.32;2.28;;;17.20;99.90;;;;;;4993937;28;20475;-75
2022/05/09 00:50:06;;;;;;;5.72;2.17;;;17.30;99.90;;;;;;4992434;28;20395;-75
2022/05/09 00:52:41;;;;;;;6.93;1.65;;;17.30;99.90;;;;;;4993727;28;20391;-75
2022/05/09 00:55:09;;;;;;;3.05;1.40;;;17.10;99.90;;;;;;4993620;28;20029;-74
2022/05/09 00:58:07;;;;;;;4.90;1.42;;;17.30;99.90;;;;;;4994018;28;20037;-76
2022/05/09 01:00:35;;;;;;;2.85;1.23;;;17.40;99.90;;;;;;4985877;28;20035;-75
2022/05/09 01:03:39;;;;;;;3.75;1.10;;;17.60;99.90;;;;;;4993577;28;20153;-75
2022/05/09 01:06:06;;;;;;;2.97;1.50;;;17.70;99.90;;;;;;4993379;28;20042;-74
2022/05/09 01:08:34;;;;;;;3.10;1.20;;;17.50;99.90;;;;;;4993472;28;20022;-74
2022/05/09 01:11:08;;;;;;;3.60;1.15;;;17.50;99.90;;;;;;4993424;28;20018;-74
2022/05/09 01:13:40;;;;;;;3.78;1.60;;;17.40;99.90;;;;;;4976762;28;20041;-74
2022/05/09 01:16:09;;;;;;;2.83;1.30;;;17.40;99.90;;;;;;4992267;28;20026;-74
2022/05/09 01:18:37;;;;;;;3.13;1.65;;;17.50;99.90;;;;;;4992106;28;20055;-74
2022/05/09 01:21:32;;;;;;;4.03;1.70;;;17.40;99.90;;;;;;4993416;28;20034;-74
2022/05/09 01:24:00;;;;;;;4.85;1.75;;;17.20;99.90;;;;;;4993329;28;20368;-73
2022/05/09 01:26:28;;;;;;;2.80;1.60;;;17.20;99.90;;;;;;4992134;28;20492;-74
2022/05/09 01:29:02;;;;;;;4.30;1.77;;;17.30;99.90;;;;;;4993299;28;20018;-73
2022/05/09 01:31:31;;;;;;;6.32;1.95;;;17.10;99.90;;;;;;4993440;28;20034;-73
2022/05/09 01:33:59;;;;;;;5.65;2.20;;;17.10;99.90;;;;;;4993272;28;20033;-74
2022/05/09 01:36:33;;;;;;;7.60;2.80;;;17.10;99.90;;;;;;4993433;28;20039;-75
2022/05/09 01:39:10;;;;;;;6.63;2.33;;;17.20;99.90;;;;;;4994568;28;20391;-75
2022/05/09 01:41:46;;;;;;;6.15;2.38;;;17.20;99.90;;;;;;4995915;28;20072;-75
2022/05/09 01:44:15;;;;;;;4.68;2.45;;;17.30;99.90;;;;;;4997665;28;20464;-75
2022/05/09 01:49:30;;;;;;;6.05;2.38;;;17.40;99.90;;;;;;4997093;28;20386;-75
2022/05/09 01:52:06;;;;;;;5.35;2.28;;;17.50;99.90;;;;;;4997122;28;20058;-75
2022/05/09 01:54:34;;;;;;;5.32;2.47;;;17.50;99.90;;;;;;4997229;28;20030;-75
2022/05/09 01:57:02;;;;;;;4.20;2.15;;;17.40;99.90;;;;;;4996849;28;20397;-76
2022/05/09 01:59:31;;;;;;;5.78;2.40;;;17.30;99.90;;;;;;4996789;28;20034;-75
2022/05/09 02:02:03;;;;;;;5.95;2.40;;;17.40;99.90;;;;;;4995848;28;20483;-75
2022/05/09 02:04:33;;;;;;;4.95;1.65;;;17.40;99.90;;;;;;4995336;28;20082;-75
2022/05/09 02:07:00;;;;;;;5.00;2.22;;;17.30;99.90;;;;;;4997209;28;20467;-75
2022/05/09 02:09:27;;;;;;;4.07;2.17;;;17.30;99.90;;;;;;4995479;28;20088;-75
2022/05/09 02:11:55;;;;;;;4.43;2.55;;;17.40;99.90;;;;;;4996633;28;20026;-75
2022/05/09 02:14:22;;;;;;;4.18;1.30;;;17.50;99.90;;;;;;4996814;28;20438;-75
2022/05/09 02:16:49;;;;;;;4.60;1.63;;;17.60;99.90;;;;;;4996497;28;20035;-75
2022/05/09 02:19:16;;;;;;;5.80;1.85;;;17.70;99.90;;;;;;4996579;28;20519;-78
2022/05/09 02:21:44;;;;;;;2.95;1.38;;;17.50;99.90;;;;;;4995127;28;20487;-75
2022/05/09 02:24:11;;;;;;;4.10;1.45;;;17.50;99.90;;;;;;4996503;28;20018;-74
2022/05/09 02:26:39;;;;;;;4.03;1.60;;;17.40;99.90;;;;;;4996590;28;20022;-75
2022/05/09 02:29:06;;;;;;;4.72;1.77;;;17.40;99.90;;;;;;4995225;28;20030;-75
2022/05/09 02:31:34;;;;;;;3.60;1.48;;;17.30;99.90;;;;;;4996452;28;20054;-75
2022/05/09 02:34:01;;;;;;;5.13;1.58;;;17.40;99.90;;;;;;4995080;28;20109;-75
2022/05/09 02:36:29;;;;;;;6.88;1.85;;;17.40;99.90;;;;;;4996252;28;20487;-75
2022/05/09 02:38:57;;;;;;;4.78;1.60;;;17.30;99.90;;;;;;4996025;28;20022;-74
2022/05/09 02:41:25;;;;;;;4.88;2.10;;;17.50;99.90;;;;;;4994800;28;20050;-75
2022/05/09 02:43:52;;;;;;;6.93;2.38;;;17.80;99.90;;;;;;4994748;28;20066;-76
2022/05/09 02:46:20;;;;;;;5.22;2.42;;;17.60;99.90;;;;;;4996283;28;20022;-75
2022/05/09 02:48:47;;;;;;;6.68;2.28;;;17.70;99.90;;;;;;4994875;28;20068;-75
2022/05/09 02:51:15;;;;;;;3.15;1.67;;;17.70;99.90;;;;;;4994507;28;20022;-75
2022/05/09 02:53:42;;;;;;;6.97;2.40;;;17.80;99.90;;;;;;4994563;28;20041;-75
2022/05/09 02:56:10;;;;;;;4.10;1.90;;;17.80;99.90;;;;;;4996233;28;20106;-75
2022/05/09 02:58:38;;;;;;;3.90;1.83;;;17.90;99.90;;;;;;4994553;28;20462;-75
2022/05/09 03:01:06;;;;;;;4.63;1.70;;;17.90;99.90;;;;;;4995642;28;20105;-75
2022/05/09 03:06:18;;;;;;;6.13;2.05;;;17.90;99.90;;;;;;4995527;28;20053;-76
2022/05/09 03:08:45;;;;;;;3.63;1.38;;;17.80;99.90;;;;;;4994360;28;20093;-76
2022/05/09 03:11:13;;;;;;;6.53;2.72;;;17.80;99.90;;;;;;4995873;28;20489;-76
2022/05/09 03:13:40;;;;;;;5.63;2.70;;;17.80;99.90;;;;;;4995403;28;20038;-76
2022/05/09 03:16:09;;;;;;;5.63;2.05;;;17.80;99.90;;;;;;4994090;28;20117;-75
2022/05/09 03:18:37;;;;;;;6.25;2.08;;;17.70;99.90;;;;;;4994088;28;20175;-76
2022/05/09 03:21:05;;;;;;;4.70;1.90;;;17.70;99.90;;;;;;4994166;28;20084;-75
2022/05/09 03:23:32;;;;;;;6.00;2.42;;;17.70;99.90;;;;;;4995340;28;20022;-76
2022/05/09 03:26:00;;;;;;;4.82;1.70;;;17.90;99.90;;;;;;4995345;28;20471;-76
2022/05/09 03:28:28;;;;;;;4.65;2.10;;;17.90;99.90;;;;;;4995302;28;20105;-75
2022/05/09 03:30:57;;;;;;;3.60;1.98;;;17.90;99.90;;;;;;4995658;28;20487;-76
2022/05/09 03:33:27;;;;;;;5.28;2.60;;;17.90;99.90;;;;;;4993922;28;20033;-76
2022/05/09 03:35:57;;;;;;;6.05;2.45;;;18.00;99.90;;;;;;4995291;28;20475;-75
2022/05/09 03:38:25;;;;;;;4.50;1.70;;;17.70;99.90;;;;;;4995006;28;20097;-76
2022/05/09 03:40:52;;;;;;;2.83;1.80;;;17.60;99.90;;;;;;4995130;28;20100;-75
2022/05/09 03:43:20;;;;;;;4.10;2.22;;;17.70;99.90;;;;;;4994965;28;20150;-75
2022/05/09 03:45:50;;;;;;;4.10;2.22;;;17.70;99.90;;;;;;4995255;28;20033;-74
2022/05/09 03:48:18;;;;;;;4.18;2.45;;;17.80;99.90;;;;;;4994946;28;20029;-74
2022/05/09 03:50:46;;;;;;;5.40;2.30;;;17.90;99.90;;;;;;4993693;28;20117;-74
2022/05/09 03:53:13;;;;;;;7.55;2.63;;;18.00;99.90;;;;;;4994807;28;20502;-75
2022/05/09 03:55:41;;;;;;;4.47;2.00;;;17.90;99.90;;;;;;4994845;28;20030;-74
2022/05/09 03:58:09;;;;;;;5.25;1.75;;;17.70;99.90;;;;;;4994664;28;20135;-74
2022/05/09 04:00:36;;;;;;;5.28;1.88;;;17.70;99.90;;;;;;4994617;28;20018;-74
2022/05/09 04:03:06;;;;;;;5.55;1.92;;;17.60;99.90;;;;;;4994299;28;20034;-74
2022/05/09 04:05:35;;;;;;;4.15;1.90;;;17.70;99.90;;;;;;4994404;28;20066;-74
2022/05/09 04:08:06;;;;;;;5.13;1.95;;;17.80;99.90;;;;;;4994413;28;20019;-75
2022/05/09 04:10:36;;;;;;;5.72;2.33;;;17.80;99.90;;;;;;4993110;28;20045;-74
2022/05/09 04:13:04;;;;;;;4.63;1.70;;;17.70;99.90;;;;;;4994335;28;20073;-75
2022/05/09 04:18:18;;;;;;;5.63;1.80;;;17.60;99.90;;;;;;4994424;28;20033;-74
2022/05/09 04:20:47;;;;;;;7.43;2.10;;;17.60;99.90;;;;;;4994335;28;20432;-74
2022/05/09 04:23:15;;;;;;;6.38;2.22;;;17.70;99.90;;;;;;4993064;28;20030;-75
2022/05/09 04:25:43;;;;;;;6.70;2.28;;;17.60;99.90;;;;;;4992938;28;20018;-74
2022/05/09 04:28:11;;;;;;;8.57;1.85;;;17.70;99.90;;;;;;4992975;28;20395;-74
2022/05/09 04:30:39;;;;;;;5.28;1.85;;;17.80;99.90;;;;;;4994164;28;20029;-74
2022/05/09 04:33:08;;;;;;;5.40;1.70;;;17.80;99.90;;;;;;4993020;28;20413;-75
2022/05/09 04:35:38;;;;;;;4.68;1.80;;;17.90;99.90;;;;;;4992633;28;20028;-75
2022/05/09 04:38:06;;;;;;;2.28;1.30;;;17.90;99.90;;;;;;4994480;28;20081;-75
2022/05/09 04:40:38;;;;;;;4.65;1.52;;;18.00;99.90;;;;;;4994017;28;20472;-74
2022/05/09 04:43:06;;;;;;;5.40;1.60;;;18.10;99.90;;;;;;4994049;28;20022;-74
2022/05/09 04:45:33;;;;;;;6.63;1.60;;;18.20;99.90;;;;;;4994061;28;20387;-74
2022/05/09 04:48:02;;;;;;;3.85;1.60;;;18.30;99.90;;;;;;4993894;28;20022;-73
2022/05/09 04:50:32;;;;;;;6.97;1.58;;;18.20;99.90;;;;;;4992486;28;20368;-74
2022/05/09 04:53:03;;;;;;;5.35;1.52;;;18.30;99.90;;;;;;4992545;28;20042;-74
2022/05/09 04:55:30;;;;;;;4.03;1.30;;;18.40;99.90;;;;;;4993711;28;20018;-72
2022/05/09 04:57:59;;;;;;;4.13;1.30;;;18.40;99.90;;;;;;4992247;28;20018;-72
2022/05/09 05:00:28;;;;;;;4.65;1.45;;;18.40;99.90;;;;;;4993543;28;20022;-73
2022/05/09 05:02:56;;;;;;;4.55;1.42;;;18.40;99.90;;;;;;4993683;28;20026;-72
2022/05/09 05:05:26;;;;;;;5.18;1.92;;;18.40;99.90;;;;;;4993252;28;20058;-72
2022/05/09 05:07:55;;;;;;;5.30;1.53;;;18.40;99.90;;;;;;4993665;28;20529;-72
2022/05/09 05:10:22;;;;;;;4.78;1.40;;;18.30;99.90;;;;;;4992293;28;20079;-72
2022/05/09 05:12:50;;;;;;;4.35;1.20;;;18.20;99.90;;;;;;4991888;28;20030;-72
2022/05/09 05:15:17;;;;;;;4.60;1.30;;;18.30;99.90;;;;;;4993285;28;20022;-73
2022/05/09 05:17:45;;;;;;;5.45;1.33;;;18.30;99.90;;;;;;4992252;28;20146;-72
2022/05/09 05:20:16;;;;;;;5.40;1.60;;;18.30;99.90;;;;;;4993334;28;20023;-72
2022/05/09 05:22:48;;;;;;;5.70;1.58;;;18.30;99.90;;;;;;4993923;28;20105;-72
2022/05/09 05:25:19;;;;;;;4.32;1.65;;;18.40;99.90;;;;;;4993457;28;20019;-72
2022/05/09 05:27:47;;;;;;;4.78;1.42;;;18.40;99.90;;;;;;4992242;28;20490;-72
2022/05/09 05:30:16;;;;;;;5.13;1.60;;;18.50;99.90;;;;;;4992043;28;20398;-72
2022/05/09 05:32:44;;;;;;;4.90;1.17;;;18.50;99.90;;;;;;4992014;28;20029;-72
2022/05/09 05:35:16;;;;;;;7.53;1.55;;;18.60;99.90;;;;;;4993260;28;20067;-72
2022/05/09 05:37:44;;;;;;;4.25;1.48;;;18.60;99.90;;;;;;4993286;28;20025;-72
2022/05/09 05:40:13;;;;;;;6.63;2.17;;;18.50;99.90;;;;;;4993775;28;20022;-72
2022/05/09 05:42:42;;;;;;;4.55;1.60;;;18.50;99.90;;;;;;4993188;28;20014;-72
2022/05/09 05:45:12;;;;;;;6.22;1.50;;;18.50;99.90;;;;;;4991927;28;20030;-72
2022/05/09 05:47:39;;;;;;;5.03;1.75;;;18.50;99.90;;;;;;4993549;28;20030;-72
2022/05/09 05:50:09;;;;;;;4.75;1.40;;;18.50;99.90;;;;;;4991868;28;20061;-73
2022/05/09 05:52:37;;;;;;;3.65;1.90;;;18.60;99.90;;;;;;4993533;28;20030;-73
2022/05/09 05:55:05;;;;;;;6.03;1.70;;;18.70;99.90;;;;;;4993216;28;20480;-74
2022/05/09 05:57:37;;;;;;;5.55;2.03;;;18.70;99.90;;;;;;4993086;28;20077;-74
2022/05/09 06:00:11;;;;;;;4.25;2.00;;;18.70;99.90;;;;;;4991896;28;20032;-74
2022/05/09 06:02:38;;;;;;;3.50;1.50;;;18.70;99.90;;;;;;4992993;28;20023;-74
2022/05/09 06:05:11;;;;;;;3.85;1.70;;;18.60;99.90;;;;;;4991642;28;20053;-74
2022/05/09 06:07:39;;;;;;;4.15;1.33;;;18.50;99.90;;;;;;4991790;28;20026;-74
2022/05/09 06:10:09;;;;;;;4.97;1.60;;;18.40;99.90;;;;;;4993077;28;20076;-74
2022/05/09 06:12:36;;;;;;;4.63;1.70;;;18.20;99.90;;;;;;4993161;28;20475;-74
2022/05/09 06:17:49;;;;;;;3.63;1.20;;;18.00;99.90;;;;;;4993770;28;20053;-74
2022/05/09 06:20:17;;;;;;;3.67;1.33;;;17.90;99.90;;;;;;4992868;28;20122;-74
2022/05/09 06:22:45;;;;;;;3.92;1.20;;;17.80;99.90;;;;;;4993070;28;20392;-74
2022/05/09 06:25:16;;;;;;;4.30;1.52;;;17.80;99.90;;;;;;4994586;28;20361;-74
2022/05/09 06:27:43;;;;;;;6.53;1.80;;;17.70;99.90;;;;;;4996617;28;20014;-73
2022/05/09 06:30:13;;;;;;;4.20;1.75;;;17.70;99.90;;;;;;4996308;28;20030;-74
2022/05/09 06:32:40;;;;;;;3.75;1.20;;;17.60;99.90;;;;;;4996272;28;20023;-74
2022/05/09 06:35:12;;;;;;;4.15;1.45;;;17.50;99.90;;;;;;4996268;28;20495;-73
2022/05/09 06:37:39;;;;;;;4.30;1.50;;;17.40;99.90;;;;;;4994937;28;20207;-73
2022/05/09 06:40:09;;;;;;;5.13;1.52;;;17.30;99.90;;;;;;4994941;28;20034;-73
2022/05/09 06:42:37;;;;;;;3.78;1.48;;;17.20;99.90;;;;;;4996331;28;20181;-74
2022/05/09 06:45:05;;;;;;;7.47;2.10;;;17.20;99.90;;;;;;4996344;28;20097;-73
2022/05/09 06:47:32;;;;;;;3.17;1.60;;;17.20;99.90;;;;;;4996240;28;20105;-73
2022/05/09 06:50:05;;;;;;;3.30;1.27;;;17.10;99.90;;;;;;4994886;28;20030;-73
2022/05/09 06:52:34;;;;;;;3.15;1.50;;;17.10;99.90;;;;;;4994772;28;20031;-73
2022/05/09 06:55:01;;;;;;;3.00;1.45;;;17.00;99.90;;;;;;4996247;28;20026;-73
2022/05/09 06:57:28;;;;;;;4.68;1.55;;;17.00;99.90;;;;;;4996297;28;20399;-73
2022/05/09 06:59:56;;;;;;;2.83;1.35;;;17.00;99.90;;;;;;4996157;28;20031;-73
2022/05/09 07:02:23;;;;;;;2.78;1.42;;;17.00;99.90;;;;;;4994754;28;20026;-72
2022/05/09 07:04:50;;;;;;;3.58;1.58;;;16.90;99.90;;;;;;4996019;28;20050;-73
2022/05/09 07:07:17;;;;;;;3.45;1.92;;;16.80;99.90;;;;;;4994808;28;20018;-74
2022/05/09 07:09:45;;;;;;;6.63;2.60;;;16.80;99.90;;;;;;4994804;28;20027;-74
2022/05/09 07:12:12;;;;;;;4.60;2.50;;;16.80;99.90;;;;;;4996193;28;20026;-74
2022/05/09 07:14:40;;;;;;;4.55;2.30;;;16.70;99.90;;;;;;4994217;28;20456;-73
2022/05/09 07:17:07;;;;;;;4.25;2.22;;;16.70;99.90;;;;;;4995419;28;20142;-74
2022/05/09 07:19:35;;;;;;;4.93;1.80;;;16.70;99.90;;;;;;4994035;28;20022;-74
2022/05/09 07:22:02;;;;;;;4.75;2.00;;;16.70;99.90;;;;;;4995431;28;20026;-74
2022/05/09 07:24:30;;;;;;;6.30;2.75;;;16.70;99.90;;;;;;4995243;28;20018;-74
2022/05/09 07:26:57;;;;;;;5.28;2.85;;;16.70;99.90;;;;;;4993987;28;20037;-74
2022/05/09 07:29:24;;;;;;;6.75;2.42;;;16.60;99.90;;;;;;4993797;28;20041;-74
2022/05/09 07:31:52;;;;;;;4.50;2.83;;;16.60;99.90;;;;;;4995103;28;20391;-74
2022/05/09 07:34:19;;;;;;;6.03;2.60;;;16.50;99.90;;;;;;4993702;28;20084;-74
2022/05/09 07:36:47;;;;;;;6.65;2.88;;;16.50;99.90;;;;;;4994397;28;20018;-73
2022/05/09 07:39:15;;;;;;;3.58;2.30;;;16.40;99.90;;;;;;4995443;28;20037;-74
2022/05/09 07:41:42;;;;;;;6.95;3.13;;;16.40;99.90;;;;;;4994997;28;20027;-74
2022/05/09 07:44:10;;;;;;;6.10;3.15;;;16.40;99.90;;;;;;4994974;28;20077;-75
2022/05/09 07:46:37;;;;;;;5.90;2.70;;;16.40;99.90;;;;;;4994823;28;20022;-74
2022/05/09 07:49:05;;;;;;;7.68;2.60;;;16.40;99.90;;;;;;4994637;28;20030;-73
2022/05/09 07:51:37;;;;;;;6.18;3.03;;;16.40;99.90;;;;;;4994710;28;20085;-75
2022/05/09 07:54:05;;;;;;;5.32;2.60;;;16.40;99.90;;;;;;4993393;28;20037;-75
2022/05/09 07:56:32;;;;;;;9.95;2.70;;;16.40;99.90;;;;;;4994729;28;20049;-75
2022/05/09 07:58:59;;;;;;;6.07;2.97;;;16.40;99.90;;;;;;4994770;28;20113;-74
2022/05/09 08:01:27;;;;;;;6.43;2.67;;;16.30;99.90;;;;;;4993472;28;20026;-75
2022/05/09 08:03:57;;;;;;;5.68;2.30;;;16.30;99.90;;;;;;4993298;28;20033;-74
2022/05/09 08:06:24;;;;;;;6.53;2.35;;;16.20;99.90;;;;;;4993233;28;20057;-74
2022/05/09 08:08:51;;;;;;;8.98;2.28;;;16.20;99.90;;;;;;4994656;28;20030;-75
2022/05/09 08:11:20;;;;;;;3.60;1.38;;;16.20;99.90;;;;;;4993284;28;20088;-74
2022/05/09 08:13:48;;;;;;;4.38;1.30;;;16.10;99.90;;;;;;4993214;28;20088;-74
2022/05/09 08:16:16;;;;;;;5.78;1.60;;;16.10;99.90;;;;;;4993180;28;20584;-74
2022/05/09 08:18:43;;;;;;;8.32;2.90;;;16.10;99.90;;;;;;4994499;28;20034;-74
2022/05/09 08:21:13;;;;;;;7.28;2.65;;;16.10;99.90;;;;;;4994497;28;20467;-74
2022/05/09 08:23:43;;;;;;;7.53;2.30;;;16.00;99.90;;;;;;4994315;28;20015;-75
2022/05/09 08:26:12;;;;;;;5.68;2.38;;;16.00;99.90;;;;;;4994353;28;20026;-75
2022/05/09 08:28:39;;;;;;;6.97;2.33;;;16.10;99.90;;;;;;4992912;28;20033;-74
2022/05/09 08:31:07;;;;;;;6.13;1.98;;;16.10;99.90;;;;;;4992957;28;20031;-75
2022/05/09 08:33:35;;;;;;;5.97;1.90;;;16.10;99.90;;;;;;4992944;28;20032;-75
2022/05/09 08:36:07;;;;;;;5.20;2.30;;;16.00;99.90;;;;;;4994257;28;20026;-74
2022/05/09 08:38:35;;;;;;;6.20;2.38;;;16.10;99.90;;;;;;4992701;28;20038;-74
2022/05/09 08:41:13;;;;;;;5.50;2.55;;;16.00;99.90;;;;;;4994202;28;20030;-74
2022/05/09 08:43:59;;;;;;;5.20;3.00;;;16.10;99.90;;;;;;4994071;28;20057;-74
2022/05/09 08:46:38;;;;;;;6.97;3.10;;;16.10;99.90;;;;;;4992729;28;20391;-75
2022/05/09 08:49:47;;;;;;;7.55;3.55;;;16.10;99.90;;;;;;4992620;28;20119;-75
2022/05/09 08:52:39;;;;;;;7.95;3.33;;;16.10;99.90;;;;;;4978468;28;20038;-75
2022/05/09 08:55:09;;;;;;;7.07;2.30;;;16.10;99.90;;;;;;4993916;28;20030;-75
2022/05/09 08:58:03;;;;;;;5.70;3.10;;;16.10;99.90;;;;;;4992657;28;20026;-75
2022/05/09 09:00:32;;;;;;;4.45;2.67;;;16.00;99.90;;;;;;4989691;28;20498;-74
2022/05/09 09:03:08;;;;;;;6.72;3.58;;;16.00;99.90;;;;;;4993794;28;20019;-74
2022/05/09 09:05:40;;;;;;;6.55;3.53;;;16.00;99.90;;;;;;4992527;28;20123;-75
2022/05/09 09:08:37;;;;;;;5.28;2.97;;;16.00;99.90;;;;;;4992877;28;20113;-75
2022/05/09 09:11:16;;;;;;;6.65;3.33;;;16.00;99.90;;;;;;4993743;28;20014;-75
2022/05/09 09:13:59;;;;;;;4.90;3.28;;;16.00;99.90;;;;;;4993749;28;20537;-76
2022/05/09 09:16:39;;;;;;;5.22;3.42;;;16.00;99.90;;;;;;4993827;28;20027;-76
2022/05/09 09:19:12;;;;;;;5.25;2.92;;;16.00;99.90;;;;;;4993824;28;20026;-75
2022/05/09 09:21:51;;;;;;;5.15;3.10;;;15.90;99.90;;;;;;4993517;28;20399;-75
2022/05/09 09:24:49;;;;;;;7.13;3.22;;;15.90;99.90;;;;;;4992478;28;20441;-74
2022/05/09 09:27:25;;;;;;;6.13;2.80;;;15.90;99.90;;;;;;4991981;28;20483;-75
2022/05/09 09:29:59;;;;;;;9.27;3.15;;;15.90;99.90;;;;;;4991979;28;20046;-75
2022/05/09 09:32:27;;;;;;;5.90;2.58;;;15.80;99.90;;;;;;4993509;28;20102;-75
2022/05/09 09:35:35;;;;;;;4.20;2.10;;;15.80;99.90;;;;;;4993365;28;20037;-75
2022/05/09 09:38:08;;;;;;;4.75;2.30;;;15.80;99.90;;;;;;4986816;28;20117;-75
2022/05/09 09:40:38;;;;;;;3.30;2.00;;;15.80;99.90;;;;;;4992080;28;20033;-74
2022/05/09 09:43:05;;;;;;;7.13;2.97;;;15.80;99.90;;;;;;4992055;28;20022;-75
2022/05/09 09:45:35;;;;;;;4.13;2.40;;;15.80;99.90;;;;;;4993888;28;20022;-75
2022/05/09 09:48:22;;;;;;;6.25;3.45;;;15.70;99.90;;;;;;4993344;28;20424;-75
2022/05/09 09:51:13;;;;;;;6.80;2.45;;;15.70;99.90;;;;;;4993376;28;20029;-75
2022/05/09 09:53:52;;;;;;;4.57;2.55;;;15.60;99.90;;;;;;4992105;28;20026;-75
2022/05/09 09:56:22;;;;;;;5.90;2.72;;;15.60;99.90;;;;;;4992025;28;20589;-75
2022/05/09 09:58:53;;;;;;;6.75;3.17;;;15.50;99.90;;;;;;4991885;28;20022;-75
2022/05/09 10:01:22;;;;;;;7.10;2.90;;;15.40;99.90;;;;;;4997174;28;20029;-75
2022/05/09 10:04:12;;;;;;;5.50;3.15;;;15.40;99.90;;;;;;4995672;28;20057;-74
2022/05/09 10:07:04;;;;;;;6.95;3.55;;;15.40;99.90;;;;;;4996831;28;20039;-75
2022/05/09 10:09:42;;;;;;;7.53;4.35;;;15.40;99.90;;;;;;4995504;28;20026;-75
2022/05/09 10:12:30;;;;;;;7.70;3.80;;;15.40;99.90;;;;;;4995509;28;20052;-76
2022/05/09 10:14:58;;;;;;;9.10;4.20;;;15.40;99.90;;;;;;4997054;28;20085;-76
2022/05/09 10:17:35;;;;;;;4.45;3.10;;;15.30;99.90;;;;;;4997017;28;20026;-75
2022/05/09 10:20:27;;;;;;;5.75;3.15;;;15.30;99.90;;;;;;4997048;28;20105;-74
2022/05/09 10:26:25;;;;;;;8.60;4.00;;;15.30;99.90;;;;;;4996593;28;20041;-73
2022/05/09 10:28:59;;;;;;;7.20;3.60;;;15.30;99.90;;;;;;4995204;28;20495;-75
2022/05/09 10:31:52;;;;;;;7.82;3.67;;;15.40;99.90;;;;;;4996569;28;20030;-75
2022/05/09 10:34:37;;;;;;;5.35;3.20;;;15.40;99.90;;;;;;4996513;28;20026;-75
2022/05/09 10:37:29;;;;;;;6.45;3.97;;;15.40;99.90;;;;;;4995257;28;20052;-75
2022/05/09 10:40:06;;;;;;;4.45;3.25;;;15.40;99.90;;;;;;4996318;28;20026;-74
2022/05/09 10:42:42;;;;;;;4.90;3.53;;;15.40;99.90;;;;;;4996572;28;20146;-75
2022/05/09 10:45:25;;;;;;;6.53;3.17;;;15.40;99.90;;;;;;4994997;28;20475;-74
2022/05/09 10:47:55;;;;;;;6.43;3.13;;;15.40;99.90;;;;;;4996235;28;20511;-74
2022/05/09 10:50:51;;;;;;;5.82;2.75;;;15.40;99.90;;;;;;4996785;28;20352;-75
2022/05/09 10:53:56;;;;;;;4.85;2.38;;;15.40;99.90;;;;;;4991446;28;20050;-76
2022/05/09 10:56:29;;;;;;;6.03;2.72;;;15.40;99.90;;;;;;4990677;28;20038;-75
2022/05/09 10:59:16;;;;;;;5.35;2.30;;;15.40;99.90;;;;;;4994746;28;20023;-74
2022/05/09 11:02:13;;;;;;;5.55;2.47;;;15.40;99.90;;;;;;4994746;28;20105;-75
2022/05/09 11:04:40;;;;;;;4.80;2.50;;;15.40;99.90;;;;;;4994381;28;20101;-75
2022/05/09 11:07:22;;;;;;;6.10;2.50;;;15.40;99.90;;;;;;4995888;28;20050;-75
2022/05/09 11:10:02;;;;;;;4.53;2.38;;;15.30;99.90;;;;;;4994499;28;20026;-74
2022/05/09 11:12:48;;;;;;;4.03;2.45;;;15.40;99.90;;;;;;4993407;28;20513;-75
2022/05/09 11:15:35;;;;;;;3.47;1.83;;;15.40;99.90;;;;;;4994368;28;20042;-74
2022/05/09 11:18:24;;;;;;;5.50;2.38;;;15.40;99.90;;;;;;4995608;28;20022;-74
2022/05/09 11:21:11;;;;;;;4.90;2.42;;;15.40;99.90;;;;;;4995433;28;20041;-75
2022/05/09 11:24:04;;;;;;;3.55;2.10;;;15.40;99.90;;;;;;4987131;28;20463;-74
2022/05/09 11:26:47;;;;;;;6.03;2.70;;;15.40;99.90;;;;;;4994123;28;20022;-75
2022/05/09 11:29:47;;;;;;;5.38;2.33;;;15.40;99.90;;;;;;4994145;28;20027;-74
2022/05/09 11:32:38;;;;;;;8.35;5.40;;;15.40;99.90;;;;;;4994178;28;20483;-75
2022/05/09 11:35:14;;;;;;;;;;;15.40;99.90;;;;;;4994531;28;20117;-75
2022/05/09 11:37:59;;;;;;;9.55;5.03;;;15.40;99.90;;;;;;4995205;28;19952;-73
2022/05/09 11:40:49;;;;;;;6.35;2.67;;;15.40;99.90;;;;;;4994671;28;20137;-74
2022/05/09 11:43:38;;;;;;;6.68;2.67;;;15.40;99.90;;;;;;4995237;28;20065;-74
2022/05/09 11:46:26;;;;;;;4.22;2.22;;;15.40;99.90;;;;;;4994943;28;20029;-73
2022/05/09 11:49:24;;;;;;;3.88;2.00;;;15.40;99.90;;;;;;4993721;28;20026;-73
2022/05/09 11:51:58;;;;;;;4.30;2.47;;;15.40;99.90;;;;;;4995007;28;20030;-74
2022/05/09 11:54:28;;;;;;;4.35;2.35;;;15.40;99.90;;;;;;4995041;28;20458;-73
2022/05/09 11:56:57;;;;;;;;;;;15.40;99.90;;;;;;4995447;28;20024;-74
2022/05/09 11:59:30;;;;;;;4.43;2.67;;;15.40;99.90;;;;;;4994653;28;20271;-75
2022/05/09 12:01:59;;;;;;;6.43;2.88;;;15.40;99.90;;;;;;4993524;28;20542;-73
2022/05/09 12:04:38;;;;;;;6.43;2.80;;;15.40;99.90;;;;;;4994464;28;20028;-74
2022/05/09 12:07:24;;;;;;;5.20;3.13;;;15.40;99.90;;;;;;4994577;28;20026;-74
2022/05/09 12:09:56;;;;;;;6.50;3.90;;;15.40;99.90;;;;;;4994675;28;20026;-74
2022/05/09 12:12:43;;;;;;;11.82;6.15;;;15.40;99.90;;;;;;4993216;28;20522;-74
2022/05/09 12:15:17;;;;;;;6.47;2.90;;;15.40;99.90;;;;;;4993248;28;20023;-74
2022/05/09 12:17:50;;;;;;;7.13;3.60;;;15.40;99.90;;;;;;4993188;28;20092;-74
2022/05/09 12:20:29;;;;;;;6.50;3.58;;;15.40;99.90;;;;;;4994384;28;20435;-75
2022/05/09 12:22:57;;;;;;;9.38;4.50;;;15.40;99.90;;;;;;4994229;28;20470;-75
2022/05/09 12:25:41;;;;;;;4.88;2.80;;;15.40;99.90;;;;;;4994377;28;20033;-75
2022/05/09 12:28:18;;;;;;;9.23;3.25;;;15.40;99.90;;;;;;4994659;28;20025;-74
2022/05/09 12:30:54;;;;;;;4.30;2.70;;;15.40;99.90;;;;;;4994674;28;20014;-74
2022/05/09 12:33:24;;;;;;;5.47;3.13;;;15.40;99.90;;;;;;4994124;28;20022;-74
2022/05/09 12:35:57;;;;;;;6.47;3.00;;;15.30;99.90;;;;;;4994164;28;20101;-74
2022/05/09 12:38:33;;;;;;;6.63;3.10;;;15.30;99.90;;;;;;4994269;28;20034;-74
2022/05/09 12:41:05;;;;;;;8.73;3.13;;;15.30;99.90;;;;;;4994099;28;20046;-75
2022/05/09 12:43:35;;;;;;;6.18;2.92;;;15.30;99.90;;;;;;4994297;28;20479;-75
2022/05/09 12:46:06;;;;;;;3.50;3.00;;;15.30;99.90;;;;;;4994526;28;20101;-75
2022/05/09 12:48:39;;;;;;;5.10;2.50;;;15.30;99.90;;;;;;4994024;28;20110;-75
2022/05/09 12:51:11;;;;;;;5.55;3.08;;;15.30;99.90;;;;;;4993910;28;20479;-75
2022/05/09 12:53:39;;;;;;;5.57;3.30;;;15.30;99.90;;;;;;4994015;28;20045;-75
2022/05/09 12:56:28;;;;;;;5.63;3.20;;;15.30;99.90;;;;;;4993846;28;20391;-74
2022/05/09 12:59:10;;;;;;;6.53;2.90;;;15.30;99.90;;;;;;4994110;28;20027;-74
2022/05/09 13:01:42;;;;;;;4.30;3.00;;;15.30;99.90;;;;;;4992480;28;20479;-74
2022/05/09 13:04:45;;;;;;;4.88;2.97;;;15.30;99.90;;;;;;4993750;28;20069;-75
2022/05/09 13:07:12;;;;;;;5.13;2.45;;;15.30;99.90;;;;;;4962241;28;20170;-74
2022/05/09 13:09:54;;;;;;;6.53;3.15;;;15.30;99.90;;;;;;4993621;28;20026;-74
2022/05/09 13:12:45;;;;;;;5.57;3.33;;;15.30;99.90;;;;;;4993604;28;20033;-74
2022/05/09 13:15:17;;;;;;;6.13;3.03;;;15.30;99.90;;;;;;4993736;28;20026;-72
2022/05/09 13:18:04;;;;;;;5.80;2.80;;;15.30;99.90;;;;;;4992132;28;20046;-74
2022/05/09 13:20:38;;;;;;;8.32;2.58;;;15.30;99.90;;;;;;4992203;28;20034;-75
2022/05/09 13:23:10;;;;;;;6.53;2.60;;;15.20;99.90;;;;;;4993645;28;20025;-74
2022/05/09 13:25:49;;;;;;;7.32;2.90;;;15.20;99.90;;;;;;4993517;28;20502;-74
2022/05/09 13:28:21;;;;;;;5.28;2.40;;;15.20;99.90;;;;;;4993602;28;20089;-74
2022/05/09 13:30:54;;;;;;;6.05;2.60;;;15.20;99.90;;;;;;4992247;28;20026;-74